sensor_id;sensor_type;location;lat;lon;timestamp;temperature;humidity
14604;DHT22;7388;51.078;13.740;2023-02-01T00:01:36;9.00;43.90
14604;DHT22;7388;51.078;13.740;2023-02-01T00:04:01;9.00;44.00
14604;DHT22;7388;51.078;13.740;2023-02-01T00:06:27;8.90;44.00
14604;DHT22;7388;51.078;13.740;2023-02-01T00:08:54;9.00;43.60
14604;DHT22;7388;51.078;13.740;2023-02-01T00:11:21;9.00;43.70
14604;DHT22;7388;51.078;13.740;2023-02-01T00:13:47;9.10;43.60
14604;DHT22;7388;51.078;13.740;2023-02-01T00:16:15;9.10;43.50
14604;DHT22;7388;51.078;13.740;2023-02-01T00:18:42;8.90;43.70
14604;DHT22;7388;51.078;13.740;2023-02-01T00:21:09;9.00;43.30
14604;DHT22;7388;51.078;13.740;2023-02-01T00:23:36;8.90;43.60
14604;DHT22;7388;51.078;13.740;2023-02-01T00:26:06;9.00;43.40
14604;DHT22;7388;51.078;13.740;2023-02-01T00:28:33;8.90;43.80
14604;DHT22;7388;51.078;13.740;2023-02-01T00:31:03;9.00;43.50
14604;DHT22;7388;51.078;13.740;2023-02-01T00:33:30;9.10;43.60
14604;DHT22;7388;51.078;13.740;2023-02-01T00:36:01;9.10;43.50
14604;DHT22;7388;51.078;13.740;2023-02-01T00:38:28;9.10;43.60
14604;DHT22;7388;51.078;13.740;2023-02-01T00:41:18;9.10;43.20
14604;DHT22;7388;51.078;13.740;2023-02-01T00:43:45;9.20;43.40
14604;DHT22;7388;51.078;13.740;2023-02-01T00:46:13;9.20;43.30
14604;DHT22;7388;51.078;13.740;2023-02-01T00:48:39;9.20;43.20
14604;DHT22;7388;51.078;13.740;2023-02-01T00:51:13;9.20;43.20
14604;DHT22;7388;51.078;13.740;2023-02-01T00:53:39;9.10;43.30
14604;DHT22;7388;51.078;13.740;2023-02-01T00:56:05;8.90;43.90
14604;DHT22;7388;51.078;13.740;2023-02-01T00:58:32;9.00;43.70
14604;DHT22;7388;51.078;13.740;2023-02-01T01:01:16;9.10;43.50
14604;DHT22;7388;51.078;13.740;2023-02-01T01:03:44;9.20;42.80
14604;DHT22;7388;51.078;13.740;2023-02-01T01:06:14;9.10;42.90
14604;DHT22;7388;51.078;13.740;2023-02-01T01:08:40;9.10;43.30
14604;DHT22;7388;51.078;13.740;2023-02-01T01:11:15;9.10;42.80
14604;DHT22;7388;51.078;13.740;2023-02-01T01:13:41;9.00;42.40
14604;DHT22;7388;51.078;13.740;2023-02-01T01:16:08;8.90;43.20
14604;DHT22;7388;51.078;13.740;2023-02-01T01:18:35;9.00;42.80
14604;DHT22;7388;51.078;13.740;2023-02-01T01:21:02;8.80;42.60
14604;DHT22;7388;51.078;13.740;2023-02-01T01:23:29;9.00;42.60
14604;DHT22;7388;51.078;13.740;2023-02-01T01:25:55;9.10;42.00
14604;DHT22;7388;51.078;13.740;2023-02-01T01:28:21;8.80;42.50
14604;DHT22;7388;51.078;13.740;2023-02-01T01:30:46;8.90;43.00
14604;DHT22;7388;51.078;13.740;2023-02-01T01:33:12;8.90;42.50
14604;DHT22;7388;51.078;13.740;2023-02-01T01:35:38;8.80;42.10
14604;DHT22;7388;51.078;13.740;2023-02-01T01:38:04;8.90;42.70
14604;DHT22;7388;51.078;13.740;2023-02-01T01:40:30;9.00;41.90
14604;DHT22;7388;51.078;13.740;2023-02-01T01:42:57;8.90;42.20
14604;DHT22;7388;51.078;13.740;2023-02-01T01:45:27;9.00;41.80
14604;DHT22;7388;51.078;13.740;2023-02-01T01:47:56;8.90;42.10
14604;DHT22;7388;51.078;13.740;2023-02-01T01:50:35;8.90;41.70
14604;DHT22;7388;51.078;13.740;2023-02-01T01:53:06;9.00;41.60
14604;DHT22;7388;51.078;13.740;2023-02-01T01:55:37;9.00;41.70
14604;DHT22;7388;51.078;13.740;2023-02-01T01:58:14;8.90;41.90
14604;DHT22;7388;51.078;13.740;2023-02-01T02:00:41;9.00;41.80
14604;DHT22;7388;51.078;13.740;2023-02-01T02:03:22;9.10;41.40
14604;DHT22;7388;51.078;13.740;2023-02-01T02:05:50;9.00;40.90
14604;DHT22;7388;51.078;13.740;2023-02-01T02:08:18;9.00;41.40
14604;DHT22;7388;51.078;13.740;2023-02-01T02:10:47;9.10;41.50
14604;DHT22;7388;51.078;13.740;2023-02-01T02:13:28;9.00;41.30
14604;DHT22;7388;51.078;13.740;2023-02-01T02:16:31;9.00;41.30
14604;DHT22;7388;51.078;13.740;2023-02-01T02:25:17;9.20;41.20
14604;DHT22;7388;51.078;13.740;2023-02-01T02:30:34;9.20;40.90
14604;DHT22;7388;51.078;13.740;2023-02-01T02:35:54;9.20;40.00
14604;DHT22;7388;51.078;13.740;2023-02-01T02:38:35;9.10;41.30
14604;DHT22;7388;51.078;13.740;2023-02-01T02:44:13;8.90;40.40
14604;DHT22;7388;51.078;13.740;2023-02-01T02:47:10;8.80;40.70
14604;DHT22;7388;51.078;13.740;2023-02-01T02:53:27;8.40;41.50
14604;DHT22;7388;51.078;13.740;2023-02-01T02:56:14;8.40;41.60
14604;DHT22;7388;51.078;13.740;2023-02-01T02:58:59;8.40;41.70
14604;DHT22;7388;51.078;13.740;2023-02-01T03:01:45;8.40;41.50
14604;DHT22;7388;51.078;13.740;2023-02-01T03:04:29;8.60;41.30
14604;DHT22;7388;51.078;13.740;2023-02-01T03:06:54;8.50;41.20
14604;DHT22;7388;51.078;13.740;2023-02-01T03:09:40;8.60;40.80
14604;DHT22;7388;51.078;13.740;2023-02-01T03:12:12;8.50;41.00
14604;DHT22;7388;51.078;13.740;2023-02-01T03:15:08;8.40;41.20
14604;DHT22;7388;51.078;13.740;2023-02-01T03:17:39;8.30;41.30
14604;DHT22;7388;51.078;13.740;2023-02-01T03:20:08;8.40;41.30
14604;DHT22;7388;51.078;13.740;2023-02-01T03:22:38;8.40;41.60
14604;DHT22;7388;51.078;13.740;2023-02-01T03:25:14;8.40;41.40
14604;DHT22;7388;51.078;13.740;2023-02-01T03:28:00;8.40;41.50
14604;DHT22;7388;51.078;13.740;2023-02-01T03:30:45;8.60;41.20
14604;DHT22;7388;51.078;13.740;2023-02-01T03:33:17;8.60;41.00
14604;DHT22;7388;51.078;13.740;2023-02-01T03:43:40;8.70;40.70
14604;DHT22;7388;51.078;13.740;2023-02-01T03:46:12;8.60;40.50
14604;DHT22;7388;51.078;13.740;2023-02-01T03:48:40;8.60;40.60
14604;DHT22;7388;51.078;13.740;2023-02-01T03:51:08;8.50;40.60
14604;DHT22;7388;51.078;13.740;2023-02-01T03:53:36;8.60;40.90
14604;DHT22;7388;51.078;13.740;2023-02-01T03:56:03;8.60;40.70
14604;DHT22;7388;51.078;13.740;2023-02-01T03:58:28;8.60;40.70
14604;DHT22;7388;51.078;13.740;2023-02-01T04:00:58;8.70;40.60
14604;DHT22;7388;51.078;13.740;2023-02-01T04:03:26;8.80;40.20
14604;DHT22;7388;51.078;13.740;2023-02-01T04:05:52;8.70;40.10
14604;DHT22;7388;51.078;13.740;2023-02-01T04:08:19;8.60;40.50
14604;DHT22;7388;51.078;13.740;2023-02-01T04:10:45;8.50;41.00
14604;DHT22;7388;51.078;13.740;2023-02-01T04:13:11;8.60;40.70
14604;DHT22;7388;51.078;13.740;2023-02-01T04:15:37;8.60;40.40
14604;DHT22;7388;51.078;13.740;2023-02-01T04:18:03;8.60;40.60
14604;DHT22;7388;51.078;13.740;2023-02-01T04:20:29;8.70;40.40
14604;DHT22;7388;51.078;13.740;2023-02-01T04:22:55;8.70;40.50
14604;DHT22;7388;51.078;13.740;2023-02-01T04:25:20;8.70;40.20
14604;DHT22;7388;51.078;13.740;2023-02-01T04:27:46;8.70;40.40
14604;DHT22;7388;51.078;13.740;2023-02-01T04:30:13;8.70;39.90
14604;DHT22;7388;51.078;13.740;2023-02-01T04:32:39;8.60;40.60
14604;DHT22;7388;51.078;13.740;2023-02-01T04:35:06;8.50;40.40
14604;DHT22;7388;51.078;13.740;2023-02-01T04:37:32;8.50;40.40
14604;DHT22;7388;51.078;13.740;2023-02-01T04:39:58;8.50;40.60
14604;DHT22;7388;51.078;13.740;2023-02-01T04:42:23;8.50;40.40
14604;DHT22;7388;51.078;13.740;2023-02-01T04:44:49;8.50;40.40
14604;DHT22;7388;51.078;13.740;2023-02-01T04:47:15;8.60;40.40
14604;DHT22;7388;51.078;13.740;2023-02-01T04:49:41;8.50;40.30
14604;DHT22;7388;51.078;13.740;2023-02-01T04:52:07;8.60;40.20
14604;DHT22;7388;51.078;13.740;2023-02-01T04:54:33;8.60;39.80
14604;DHT22;7388;51.078;13.740;2023-02-01T04:56:59;8.60;39.90
14604;DHT22;7388;51.078;13.740;2023-02-01T04:59:26;8.80;39.80
14604;DHT22;7388;51.078;13.740;2023-02-01T05:01:52;8.70;39.60
14604;DHT22;7388;51.078;13.740;2023-02-01T05:04:17;8.70;39.60
14604;DHT22;7388;51.078;13.740;2023-02-01T05:06:44;8.70;39.50
14604;DHT22;7388;51.078;13.740;2023-02-01T05:09:10;8.70;39.00
14604;DHT22;7388;51.078;13.740;2023-02-01T05:11:36;8.70;39.50
14604;DHT22;7388;51.078;13.740;2023-02-01T05:14:20;8.70;39.50
14604;DHT22;7388;51.078;13.740;2023-02-01T05:16:46;8.80;39.00
14604;DHT22;7388;51.078;13.740;2023-02-01T05:19:11;8.70;39.60
14604;DHT22;7388;51.078;13.740;2023-02-01T05:21:38;8.90;38.90
14604;DHT22;7388;51.078;13.740;2023-02-01T05:24:04;8.90;39.00
14604;DHT22;7388;51.078;13.740;2023-02-01T05:26:37;9.00;38.60
14604;DHT22;7388;51.078;13.740;2023-02-01T05:29:03;9.00;38.30
14604;DHT22;7388;51.078;13.740;2023-02-01T05:31:29;9.00;38.50
14604;DHT22;7388;51.078;13.740;2023-02-01T05:33:55;9.00;38.70
14604;DHT22;7388;51.078;13.740;2023-02-01T05:36:21;9.10;38.70
14604;DHT22;7388;51.078;13.740;2023-02-01T05:38:47;9.20;37.80
14604;DHT22;7388;51.078;13.740;2023-02-01T05:41:12;9.20;38.20
14604;DHT22;7388;51.078;13.740;2023-02-01T05:43:38;9.30;37.70
14604;DHT22;7388;51.078;13.740;2023-02-01T05:46:04;9.20;37.80
14604;DHT22;7388;51.078;13.740;2023-02-01T05:48:30;9.00;37.80
14604;DHT22;7388;51.078;13.740;2023-02-01T05:50:56;9.00;38.40
14604;DHT22;7388;51.078;13.740;2023-02-01T05:53:22;9.00;38.20
14604;DHT22;7388;51.078;13.740;2023-02-01T05:55:47;9.10;38.00
14604;DHT22;7388;51.078;13.740;2023-02-01T05:58:13;9.00;38.50
14604;DHT22;7388;51.078;13.740;2023-02-01T06:00:39;9.00;38.60
14604;DHT22;7388;51.078;13.740;2023-02-01T06:03:05;9.00;38.80
14604;DHT22;7388;51.078;13.740;2023-02-01T06:05:31;8.80;39.00
14604;DHT22;7388;51.078;13.740;2023-02-01T06:07:57;8.70;39.30
14604;DHT22;7388;51.078;13.740;2023-02-01T06:10:23;8.70;39.50
14604;DHT22;7388;51.078;13.740;2023-02-01T06:12:49;8.80;39.60
14604;DHT22;7388;51.078;13.740;2023-02-01T06:15:15;8.80;39.80
14604;DHT22;7388;51.078;13.740;2023-02-01T06:17:43;8.80;39.20
14604;DHT22;7388;51.078;13.740;2023-02-01T06:20:10;8.70;39.30
14604;DHT22;7388;51.078;13.740;2023-02-01T06:22:36;8.70;39.80
14604;DHT22;7388;51.078;13.740;2023-02-01T06:25:03;8.80;39.60
14604;DHT22;7388;51.078;13.740;2023-02-01T06:27:29;8.80;39.50
14604;DHT22;7388;51.078;13.740;2023-02-01T06:29:55;8.80;39.30
14604;DHT22;7388;51.078;13.740;2023-02-01T06:32:21;8.80;39.30
14604;DHT22;7388;51.078;13.740;2023-02-01T06:34:48;8.70;39.30
14604;DHT22;7388;51.078;13.740;2023-02-01T06:37:14;8.70;39.50
14604;DHT22;7388;51.078;13.740;2023-02-01T06:39:39;8.70;39.50
14604;DHT22;7388;51.078;13.740;2023-02-01T06:42:05;8.80;39.50
14604;DHT22;7388;51.078;13.740;2023-02-01T06:44:31;8.90;39.40
14604;DHT22;7388;51.078;13.740;2023-02-01T06:46:57;8.80;38.90
14604;DHT22;7388;51.078;13.740;2023-02-01T06:49:22;8.80;39.30
14604;DHT22;7388;51.078;13.740;2023-02-01T06:51:48;8.70;39.50
14604;DHT22;7388;51.078;13.740;2023-02-01T06:54:14;8.80;39.50
14604;DHT22;7388;51.078;13.740;2023-02-01T06:56:40;8.70;39.90
14604;DHT22;7388;51.078;13.740;2023-02-01T06:59:07;8.60;40.00
14604;DHT22;7388;51.078;13.740;2023-02-01T07:01:33;8.60;40.20
14604;DHT22;7388;51.078;13.740;2023-02-01T07:03:59;8.70;40.30
14604;DHT22;7388;51.078;13.740;2023-02-01T07:06:25;8.80;40.00
14604;DHT22;7388;51.078;13.740;2023-02-01T07:08:51;8.70;40.30
14604;DHT22;7388;51.078;13.740;2023-02-01T07:11:18;8.60;40.70
14604;DHT22;7388;51.078;13.740;2023-02-01T07:13:44;8.70;40.80
14604;DHT22;7388;51.078;13.740;2023-02-01T07:16:12;8.80;40.90
14604;DHT22;7388;51.078;13.740;2023-02-01T07:18:39;8.70;41.60
14604;DHT22;7388;51.078;13.740;2023-02-01T07:21:05;8.60;42.00
14604;DHT22;7388;51.078;13.740;2023-02-01T07:23:31;8.70;42.60
14604;DHT22;7388;51.078;13.740;2023-02-01T07:25:59;8.50;43.00
14604;DHT22;7388;51.078;13.740;2023-02-01T07:28:26;8.60;43.50
14604;DHT22;7388;51.078;13.740;2023-02-01T07:30:53;8.60;43.50
14604;DHT22;7388;51.078;13.740;2023-02-01T07:33:21;8.60;44.20
14604;DHT22;7388;51.078;13.740;2023-02-01T07:35:47;8.50;44.40
14604;DHT22;7388;51.078;13.740;2023-02-01T07:38:13;8.60;44.50
14604;DHT22;7388;51.078;13.740;2023-02-01T07:40:39;8.60;44.60
14604;DHT22;7388;51.078;13.740;2023-02-01T07:43:05;8.60;44.70
14604;DHT22;7388;51.078;13.740;2023-02-01T07:45:34;8.60;44.10
14604;DHT22;7388;51.078;13.740;2023-02-01T07:47:59;8.70;44.50
14604;DHT22;7388;51.078;13.740;2023-02-01T07:50:25;8.60;44.20
14604;DHT22;7388;51.078;13.740;2023-02-01T07:52:51;8.60;44.30
14604;DHT22;7388;51.078;13.740;2023-02-01T07:55:19;8.60;43.90
14604;DHT22;7388;51.078;13.740;2023-02-01T07:57:45;8.70;43.40
14604;DHT22;7388;51.078;13.740;2023-02-01T08:00:11;8.60;43.80
14604;DHT22;7388;51.078;13.740;2023-02-01T08:02:59;8.50;43.70
14604;DHT22;7388;51.078;13.740;2023-02-01T08:05:25;8.60;43.90
14604;DHT22;7388;51.078;13.740;2023-02-01T08:07:51;8.60;43.30
14604;DHT22;7388;51.078;13.740;2023-02-01T08:10:18;8.50;43.40
14604;DHT22;7388;51.078;13.740;2023-02-01T08:12:44;8.50;44.20
14604;DHT22;7388;51.078;13.740;2023-02-01T08:15:16;8.60;44.10
14604;DHT22;7388;51.078;13.740;2023-02-01T08:17:51;8.70;43.80
14604;DHT22;7388;51.078;13.740;2023-02-01T08:20:18;8.70;44.20
14604;DHT22;7388;51.078;13.740;2023-02-01T08:22:44;8.70;43.90
14604;DHT22;7388;51.078;13.740;2023-02-01T08:25:10;8.70;43.60
14604;DHT22;7388;51.078;13.740;2023-02-01T08:27:36;8.60;43.70
14604;DHT22;7388;51.078;13.740;2023-02-01T08:30:04;8.60;44.40
14604;DHT22;7388;51.078;13.740;2023-02-01T08:32:30;8.60;44.60
14604;DHT22;7388;51.078;13.740;2023-02-01T08:34:56;8.50;44.80
14604;DHT22;7388;51.078;13.740;2023-02-01T08:37:21;8.40;44.70
14604;DHT22;7388;51.078;13.740;2023-02-01T08:39:48;8.50;44.70
14604;DHT22;7388;51.078;13.740;2023-02-01T08:42:16;8.60;44.30
14604;DHT22;7388;51.078;13.740;2023-02-01T08:45:01;8.70;43.40
14604;DHT22;7388;51.078;13.740;2023-02-01T08:47:28;8.80;43.30
14604;DHT22;7388;51.078;13.740;2023-02-01T08:49:54;8.80;43.20
14604;DHT22;7388;51.078;13.740;2023-02-01T08:52:20;8.80;42.50
14604;DHT22;7388;51.078;13.740;2023-02-01T08:54:45;8.80;42.30
14604;DHT22;7388;51.078;13.740;2023-02-01T08:57:11;8.90;42.40
14604;DHT22;7388;51.078;13.740;2023-02-01T08:59:37;9.00;42.60
14604;DHT22;7388;51.078;13.740;2023-02-01T09:02:03;9.00;41.40
14604;DHT22;7388;51.078;13.740;2023-02-01T09:04:29;8.80;41.50
14604;DHT22;7388;51.078;13.740;2023-02-01T09:06:54;8.70;41.80
14604;DHT22;7388;51.078;13.740;2023-02-01T09:09:23;8.90;41.30
14604;DHT22;7388;51.078;13.740;2023-02-01T09:11:49;9.00;41.00
14604;DHT22;7388;51.078;13.740;2023-02-01T09:14:18;9.10;41.50
14604;DHT22;7388;51.078;13.740;2023-02-01T09:16:44;9.20;40.80
14604;DHT22;7388;51.078;13.740;2023-02-01T09:19:09;9.20;40.80
14604;DHT22;7388;51.078;13.740;2023-02-01T09:21:35;9.20;41.40
14604;DHT22;7388;51.078;13.740;2023-02-01T09:24:01;9.10;40.90
14604;DHT22;7388;51.078;13.740;2023-02-01T09:26:27;9.20;41.00
14604;DHT22;7388;51.078;13.740;2023-02-01T09:28:53;9.10;41.00
14604;DHT22;7388;51.078;13.740;2023-02-01T09:31:19;9.20;41.70
14604;DHT22;7388;51.078;13.740;2023-02-01T09:33:44;9.20;42.00
14604;DHT22;7388;51.078;13.740;2023-02-01T09:36:10;9.20;42.40
14604;DHT22;7388;51.078;13.740;2023-02-01T09:38:36;9.10;42.90
14604;DHT22;7388;51.078;13.740;2023-02-01T09:41:10;9.00;43.00
14604;DHT22;7388;51.078;13.740;2023-02-01T09:46:33;8.70;44.00
14604;DHT22;7388;51.078;13.740;2023-02-01T09:49:20;8.60;44.90
14604;DHT22;7388;51.078;13.740;2023-02-01T09:51:49;8.40;46.60
14604;DHT22;7388;51.078;13.740;2023-02-01T09:54:22;8.30;48.00
14604;DHT22;7388;51.078;13.740;2023-02-01T09:57:04;8.20;48.70
14604;DHT22;7388;51.078;13.740;2023-02-01T09:59:46;8.10;49.20
14604;DHT22;7388;51.078;13.740;2023-02-01T10:02:19;8.10;49.20
14604;DHT22;7388;51.078;13.740;2023-02-01T10:04:47;8.00;49.70
14604;DHT22;7388;51.078;13.740;2023-02-01T10:10:05;7.80;50.00
14604;DHT22;7388;51.078;13.740;2023-02-01T10:21:24;8.00;50.00
14604;DHT22;7388;51.078;13.740;2023-02-01T10:26:31;8.10;49.60
14604;DHT22;7388;51.078;13.740;2023-02-01T10:29:03;8.10;49.40
14604;DHT22;7388;51.078;13.740;2023-02-01T10:31:32;8.00;49.70
14604;DHT22;7388;51.078;13.740;2023-02-01T10:34:22;7.90;50.30
14604;DHT22;7388;51.078;13.740;2023-02-01T10:39:37;8.00;50.00
14604;DHT22;7388;51.078;13.740;2023-02-01T10:42:03;8.00;50.40
14604;DHT22;7388;51.078;13.740;2023-02-01T10:44:30;8.00;50.50
14604;DHT22;7388;51.078;13.740;2023-02-01T10:46:57;8.20;49.90
14604;DHT22;7388;51.078;13.740;2023-02-01T10:49:29;8.30;49.70
14604;DHT22;7388;51.078;13.740;2023-02-01T10:54:34;8.40;49.50
14604;DHT22;7388;51.078;13.740;2023-02-01T10:57:01;8.40;49.30
14604;DHT22;7388;51.078;13.740;2023-02-01T10:59:29;8.30;49.60
14604;DHT22;7388;51.078;13.740;2023-02-01T11:02:00;8.40;49.40
14604;DHT22;7388;51.078;13.740;2023-02-01T11:04:29;8.60;49.10
14604;DHT22;7388;51.078;13.740;2023-02-01T11:07:20;8.70;48.30
14604;DHT22;7388;51.078;13.740;2023-02-01T11:09:51;8.80;47.50
14604;DHT22;7388;51.078;13.740;2023-02-01T11:12:28;8.80;47.70
14604;DHT22;7388;51.078;13.740;2023-02-01T11:14:59;8.80;46.70
14604;DHT22;7388;51.078;13.740;2023-02-01T11:17:34;8.60;47.70
14604;DHT22;7388;51.078;13.740;2023-02-01T11:20:12;8.70;47.00
14604;DHT22;7388;51.078;13.740;2023-02-01T11:22:46;8.60;47.00
14604;DHT22;7388;51.078;13.740;2023-02-01T11:25:15;8.80;47.10
14604;DHT22;7388;51.078;13.740;2023-02-01T11:27:42;9.10;46.40
14604;DHT22;7388;51.078;13.740;2023-02-01T11:30:16;9.10;46.20
14604;DHT22;7388;51.078;13.740;2023-02-01T11:32:44;9.20;45.60
14604;DHT22;7388;51.078;13.740;2023-02-01T11:35:13;9.20;45.50
14604;DHT22;7388;51.078;13.740;2023-02-01T11:37:42;9.30;44.30
14604;DHT22;7388;51.078;13.740;2023-02-01T11:40:34;9.20;45.30
14604;DHT22;7388;51.078;13.740;2023-02-01T11:43:13;9.30;44.70
14604;DHT22;7388;51.078;13.740;2023-02-01T11:45:39;9.30;44.60
14604;DHT22;7388;51.078;13.740;2023-02-01T11:48:13;9.10;45.20
14604;DHT22;7388;51.078;13.740;2023-02-01T12:05:01;9.10;45.70
14604;DHT22;7388;51.078;13.740;2023-02-01T12:18:51;9.40;44.40
14604;DHT22;7388;51.078;13.740;2023-02-01T12:36:09;9.70;43.20
14604;DHT22;7388;51.078;13.740;2023-02-01T12:41:27;9.60;43.20
14604;DHT22;7388;51.078;13.740;2023-02-01T12:44:32;9.50;42.80
14604;DHT22;7388;51.078;13.740;2023-02-01T12:46:53;9.60;43.00
14604;DHT22;7388;51.078;13.740;2023-02-01T12:52:11;9.50;43.30
14604;DHT22;7388;51.078;13.740;2023-02-01T12:54:41;9.50;42.10
14604;DHT22;7388;51.078;13.740;2023-02-01T12:57:32;9.40;43.00
14604;DHT22;7388;51.078;13.740;2023-02-01T13:02:43;9.40;43.20
14604;DHT22;7388;51.078;13.740;2023-02-01T13:05:17;9.40;42.60
14604;DHT22;7388;51.078;13.740;2023-02-01T13:10:38;9.60;41.90
14604;DHT22;7388;51.078;13.740;2023-02-01T13:13:43;9.60;41.90
14604;DHT22;7388;51.078;13.740;2023-02-01T13:16:24;9.60;42.10
14604;DHT22;7388;51.078;13.740;2023-02-01T13:18:59;9.70;42.40
14604;DHT22;7388;51.078;13.740;2023-02-01T13:21:31;9.60;42.20
14604;DHT22;7388;51.078;13.740;2023-02-01T13:23:57;9.70;42.50
14604;DHT22;7388;51.078;13.740;2023-02-01T13:26:24;9.90;42.10
14604;DHT22;7388;51.078;13.740;2023-02-01T13:29:02;9.90;42.10
14604;DHT22;7388;51.078;13.740;2023-02-01T13:42:27;10.00;41.60
14604;DHT22;7388;51.078;13.740;2023-02-01T13:44:59;10.10;41.00
14604;DHT22;7388;51.078;13.740;2023-02-01T13:47:38;10.10;40.60
14604;DHT22;7388;51.078;13.740;2023-02-01T13:50:26;10.20;40.40
14604;DHT22;7388;51.078;13.740;2023-02-01T13:55:41;10.20;40.10
14604;DHT22;7388;51.078;13.740;2023-02-01T14:00:46;10.20;40.00
14604;DHT22;7388;51.078;13.740;2023-02-01T14:03:16;10.30;40.80
14604;DHT22;7388;51.078;13.740;2023-02-01T14:08:15;10.30;39.10
14604;DHT22;7388;51.078;13.740;2023-02-01T14:13:38;10.20;39.60
14604;DHT22;7388;51.078;13.740;2023-02-01T14:21:28;10.40;39.00
14604;DHT22;7388;51.078;13.740;2023-02-01T14:24:04;10.20;38.00
14604;DHT22;7388;51.078;13.740;2023-02-01T14:34:52;10.00;38.00
14604;DHT22;7388;51.078;13.740;2023-02-01T14:39:52;10.00;38.40
14604;DHT22;7388;51.078;13.740;2023-02-01T14:42:26;10.10;37.90
14604;DHT22;7388;51.078;13.740;2023-02-01T15:01:19;9.90;38.30
14604;DHT22;7388;51.078;13.740;2023-02-01T15:04:09;10.00;38.30
14604;DHT22;7388;51.078;13.740;2023-02-01T15:06:40;10.00;38.00
14604;DHT22;7388;51.078;13.740;2023-02-01T15:09:16;10.00;38.00
14604;DHT22;7388;51.078;13.740;2023-02-01T15:14:24;10.00;37.80
14604;DHT22;7388;51.078;13.740;2023-02-01T15:16:49;9.90;38.30
14604;DHT22;7388;51.078;13.740;2023-02-01T15:19:24;9.90;38.10
14604;DHT22;7388;51.078;13.740;2023-02-01T15:21:53;10.00;37.90
14604;DHT22;7388;51.078;13.740;2023-02-01T15:24:22;9.80;39.00
14604;DHT22;7388;51.078;13.740;2023-02-01T15:26:50;9.80;39.10
14604;DHT22;7388;51.078;13.740;2023-02-01T15:29:16;9.70;39.50
14604;DHT22;7388;51.078;13.740;2023-02-01T15:31:45;9.60;39.70
14604;DHT22;7388;51.078;13.740;2023-02-01T15:34:12;9.60;40.20
14604;DHT22;7388;51.078;13.740;2023-02-01T15:36:38;9.70;39.50
14604;DHT22;7388;51.078;13.740;2023-02-01T15:39:23;9.70;39.90
14604;DHT22;7388;51.078;13.740;2023-02-01T15:41:59;9.70;39.40
14604;DHT22;7388;51.078;13.740;2023-02-01T15:44:39;9.60;40.10
14604;DHT22;7388;51.078;13.740;2023-02-01T15:47:26;9.50;39.30
14604;DHT22;7388;51.078;13.740;2023-02-01T15:49:54;9.40;39.70
14604;DHT22;7388;51.078;13.740;2023-02-01T15:52:25;9.40;39.40
14604;DHT22;7388;51.078;13.740;2023-02-01T15:54:56;9.30;39.70
14604;DHT22;7388;51.078;13.740;2023-02-01T15:57:29;9.40;39.70
14604;DHT22;7388;51.078;13.740;2023-02-01T16:00:02;9.40;38.80
14604;DHT22;7388;51.078;13.740;2023-02-01T16:02:41;9.50;39.40
14604;DHT22;7388;51.078;13.740;2023-02-01T16:05:37;9.60;39.20
14604;DHT22;7388;51.078;13.740;2023-02-01T16:08:16;9.50;38.50
14604;DHT22;7388;51.078;13.740;2023-02-01T16:10:49;9.30;39.40
14604;DHT22;7388;51.078;13.740;2023-02-01T16:13:16;9.30;40.40
14604;DHT22;7388;51.078;13.740;2023-02-01T16:15:42;9.10;41.20
14604;DHT22;7388;51.078;13.740;2023-02-01T16:18:09;9.00;41.70
14604;DHT22;7388;51.078;13.740;2023-02-01T16:20:37;9.00;42.60
14604;DHT22;7388;51.078;13.740;2023-02-01T16:23:04;9.00;42.00
14604;DHT22;7388;51.078;13.740;2023-02-01T16:25:31;9.00;42.10
14604;DHT22;7388;51.078;13.740;2023-02-01T16:27:57;9.00;42.00
14604;DHT22;7388;51.078;13.740;2023-02-01T16:30:23;9.10;42.10
14604;DHT22;7388;51.078;13.740;2023-02-01T16:32:56;9.20;42.10
14604;DHT22;7388;51.078;13.740;2023-02-01T16:35:36;9.20;42.40
14604;DHT22;7388;51.078;13.740;2023-02-01T16:38:09;9.20;42.60
14604;DHT22;7388;51.078;13.740;2023-02-01T16:40:39;9.20;43.20
14604;DHT22;7388;51.078;13.740;2023-02-01T16:43:15;9.10;43.80
14604;DHT22;7388;51.078;13.740;2023-02-01T16:45:42;9.10;44.40
14604;DHT22;7388;51.078;13.740;2023-02-01T16:48:21;9.00;45.10
14604;DHT22;7388;51.078;13.740;2023-02-01T16:50:50;8.80;46.00
14604;DHT22;7388;51.078;13.740;2023-02-01T16:53:18;8.80;46.30
14604;DHT22;7388;51.078;13.740;2023-02-01T16:55:44;8.70;46.50
14604;DHT22;7388;51.078;13.740;2023-02-01T16:58:12;8.80;46.70
14604;DHT22;7388;51.078;13.740;2023-02-01T17:00:37;8.90;46.30
14604;DHT22;7388;51.078;13.740;2023-02-01T17:03:04;9.00;46.00
14604;DHT22;7388;51.078;13.740;2023-02-01T17:05:33;9.00;46.20
14604;DHT22;7388;51.078;13.740;2023-02-01T17:08:04;9.00;46.60
14604;DHT22;7388;51.078;13.740;2023-02-01T17:10:31;9.00;44.80
14604;DHT22;7388;51.078;13.740;2023-02-01T17:12:57;8.40;45.00
14604;DHT22;7388;51.078;13.740;2023-02-01T17:15:24;7.70;47.30
14604;DHT22;7388;51.078;13.740;2023-02-01T17:17:51;7.30;48.10
14604;DHT22;7388;51.078;13.740;2023-02-01T17:20:22;7.00;49.30
14604;DHT22;7388;51.078;13.740;2023-02-01T17:22:48;6.90;49.40
14604;DHT22;7388;51.078;13.740;2023-02-01T17:25:17;6.90;49.90
14604;DHT22;7388;51.078;13.740;2023-02-01T17:27:43;6.90;49.70
14604;DHT22;7388;51.078;13.740;2023-02-01T17:30:11;7.10;49.30
14604;DHT22;7388;51.078;13.740;2023-02-01T17:32:37;7.10;49.10
14604;DHT22;7388;51.078;13.740;2023-02-01T17:35:05;7.10;48.80
14604;DHT22;7388;51.078;13.740;2023-02-01T17:37:32;7.10;48.90
14604;DHT22;7388;51.078;13.740;2023-02-01T17:39:59;7.20;48.60
14604;DHT22;7388;51.078;13.740;2023-02-01T17:42:28;7.20;48.50
14604;DHT22;7388;51.078;13.740;2023-02-01T17:44:58;7.20;48.30
14604;DHT22;7388;51.078;13.740;2023-02-01T17:47:25;7.30;48.80
14604;DHT22;7388;51.078;13.740;2023-02-01T17:49:50;7.30;47.90
14604;DHT22;7388;51.078;13.740;2023-02-01T17:52:22;7.30;47.50
14604;DHT22;7388;51.078;13.740;2023-02-01T17:54:48;7.40;47.20
14604;DHT22;7388;51.078;13.740;2023-02-01T17:57:16;7.40;47.10
14604;DHT22;7388;51.078;13.740;2023-02-01T17:59:42;7.40;47.10
14604;DHT22;7388;51.078;13.740;2023-02-01T18:02:18;7.30;47.10
14604;DHT22;7388;51.078;13.740;2023-02-01T18:04:44;7.40;47.00
14604;DHT22;7388;51.078;13.740;2023-02-01T18:07:10;7.40;46.90
14604;DHT22;7388;51.078;13.740;2023-02-01T18:09:36;7.50;47.00
14604;DHT22;7388;51.078;13.740;2023-02-01T18:12:03;7.50;47.00
14604;DHT22;7388;51.078;13.740;2023-02-01T18:14:30;7.40;47.20
14604;DHT22;7388;51.078;13.740;2023-02-01T18:16:55;7.30;47.50
14604;DHT22;7388;51.078;13.740;2023-02-01T18:19:21;7.40;47.30
14604;DHT22;7388;51.078;13.740;2023-02-01T18:21:47;7.40;47.30
14604;DHT22;7388;51.078;13.740;2023-02-01T18:34:19;7.80;46.70
14604;DHT22;7388;51.078;13.740;2023-02-01T18:36:50;7.70;46.70
14604;DHT22;7388;51.078;13.740;2023-02-01T18:39:16;7.70;46.60
14604;DHT22;7388;51.078;13.740;2023-02-01T18:41:43;7.60;47.30
14604;DHT22;7388;51.078;13.740;2023-02-01T18:44:13;7.60;47.00
14604;DHT22;7388;51.078;13.740;2023-02-01T18:46:40;7.60;47.20
14604;DHT22;7388;51.078;13.740;2023-02-01T18:49:06;7.60;47.10